Time;durP1;ratioP1;P1;durP2;ratioP2;P2;SDS_P1;SDS_P2;PMS_P1;PMS_P2;Temp;Humidity;BMP_temperature;BMP_pressure;BME280_temperature;BME280_humidity;BME280_pressure;Samples;Min_cycle;Max_cycle;Signal;HPM_P1;HPM_P2
2022/01/03 00:01:09;;;;;;;;;12.25;4.25;;;;;11.68;72.90;101385.50;5063846;27;46306;-72
2022/01/03 00:03:34;;;;;;;;;7.00;3.75;;;;;11.67;73.13;101389.91;5064429;27;45496;-72
2022/01/03 00:06:01;;;;;;;;;7.25;4.00;;;;;11.46;73.01;101335.72;5067008;27;45951;-72
2022/01/03 00:08:28;;;;;;;;;6.25;3.25;;;;;11.60;72.63;101361.84;5060871;27;45485;-72
2022/01/03 00:10:56;;;;;;;;;12.50;8.00;;;;;11.56;72.62;101374.31;5065444;27;46161;-72
2022/01/03 00:13:22;;;;;;;;;24.75;12.25;;;;;11.60;72.95;101385.69;5061464;27;45364;-72
2022/01/03 00:15:48;;;;;;;;;15.50;8.50;;;;;11.62;73.41;101381.25;5066596;27;45514;-72
2022/01/03 00:18:13;;;;;;;;;13.25;8.50;;;;;11.55;73.46;101361.97;5065862;27;45396;-72
2022/01/03 00:20:40;;;;;;;;;14.75;6.25;;;;;11.66;73.04;101369.63;5060562;27;45587;-72
2022/01/03 00:23:08;;;;;;;;;37.25;23.50;;;;;11.68;73.22;101374.91;5069768;27;45576;-72
2022/01/03 00:25:41;;;;;;;;;23.75;14.75;;;;;11.54;72.49;101346.97;5055911;27;45534;-72
2022/01/03 00:28:36;;;;;;;;;14.25;4.25;;;;;11.68;73.31;101370.44;5071337;27;45563;-72
2022/01/03 00:31:03;;;;;;;;;15.25;10.00;;;;;11.68;72.81;101381.06;5067166;27;45687;-72
2022/01/03 00:33:31;;;;;;;;;16.75;11.25;;;;;11.70;72.71;101376.56;5059544;27;45581;-72
2022/01/03 00:36:00;;;;;;;;;10.00;7.00;;;;;11.52;72.14;101347.94;5063258;27;46053;-72
2022/01/03 00:38:32;;;;;;;;;15.50;6.25;;;;;11.59;72.37;101365.41;5070307;28;45582;-72
2022/01/03 00:41:01;;;;;;;;;14.00;6.00;;;;;11.54;72.50;101368.19;5069074;27;46855;-72
2022/01/03 00:43:27;;;;;;;;;6.25;3.00;;;;;11.45;72.28;101356.97;5072466;28;45642;-71
2022/01/03 00:45:54;;;;;;;;;28.50;17.75;;;;;11.53;72.05;101386.78;5072320;28;45872;-72
2022/01/03 00:48:21;;;;;;;;;19.75;13.50;;;;;11.51;72.05;101393.91;5074883;27;45371;-71
2022/01/03 00:50:46;;;;;;;;;14.50;6.50;;;;;11.11;72.27;101334.91;5070778;27;45592;-72
2022/01/03 00:53:12;;;;;;;;;18.25;5.75;;;;;11.44;72.81;101381.72;5051590;28;45477;-72
2022/01/03 00:55:52;;;;;;;;;15.25;6.50;;;;;11.24;72.78;101355.78;5054534;28;45387;-71
2022/01/03 00:58:20;;;;;;;;;10.50;5.75;;;;;11.40;72.83;101386.25;5072499;27;45419;-72
2022/01/03 01:00:50;;;;;;;;;13.75;7.75;;;;;11.27;72.66;101361.00;5076913;27;46417;-72
2022/01/03 01:03:20;;;;;;;;;28.25;15.50;;;;;11.41;72.89;101390.63;5069456;27;45336;-72
2022/01/03 01:05:48;;;;;;;;;15.75;9.25;;;;;11.38;73.01;101377.47;5049885;28;45337;-72
2022/01/03 01:08:18;;;;;;;;;43.50;25.50;;;;;11.28;72.41;101365.38;5072967;27;45285;-72
2022/01/03 01:10:44;;;;;;;;;15.50;6.50;;;;;11.36;73.19;101377.53;5068966;27;46081;-73
2022/01/03 01:13:12;;;;;;;;;23.50;6.50;;;;;11.19;72.72;101360.34;5072451;27;45375;-73
2022/01/03 01:15:38;;;;;;;;;12.25;7.75;;;;;11.25;72.76;101387.53;5072717;27;45454;-71
2022/01/03 01:18:04;;;;;;;;;7.25;5.00;;;;;11.19;73.37;101377.09;5067561;27;45486;-70
2022/01/03 01:20:31;;;;;;;;;14.75;8.00;;;;;11.20;72.91;101364.72;5074316;27;46417;-70
2022/01/03 01:22:56;;;;;;;;;6.00;3.75;;;;;10.77;72.95;101283.78;5072061;27;45470;-70
2022/01/03 01:27:49;;;;;;;;;14.75;6.50;;;;;11.35;73.00;101385.50;5078679;27;45519;-72
2022/01/03 01:30:25;;;;;;;;;10.75;5.75;;;;;11.35;73.00;101377.53;5060332;27;46317;-72
2022/01/03 01:32:58;;;;;;;;;18.25;5.00;;;;;11.32;73.10;101383.81;5084664;27;45761;-72
2022/01/03 01:35:28;;;;;;;;;17.25;5.50;;;;;11.25;73.22;101376.94;5071536;28;45482;-72
2022/01/03 01:37:54;;;;;;;;;7.00;3.75;;;;;11.34;73.07;101399.66;5057812;28;45346;-72
2022/01/03 01:40:22;;;;;;;;;13.25;4.00;;;;;11.11;73.46;101364.03;5074112;27;46246;-72
2022/01/03 01:42:48;;;;;;;;;13.25;6.50;;;;;11.26;73.73;101385.75;5074077;27;45371;-72
2022/01/03 01:45:18;;;;;;;;;7.00;2.25;;;;;11.29;73.47;101396.25;5069900;27;45513;-72
2022/01/03 01:47:47;;;;;;;;;10.50;3.25;;;;;11.19;73.76;101393.00;5063021;27;45364;-72
2022/01/03 01:50:14;;;;;;;;;13.50;2.50;;;;;11.15;73.25;101386.06;5070904;27;45333;-72
2022/01/03 01:52:43;;;;;;;;;3.00;2.50;;;;;11.14;73.81;101374.56;5067402;28;46697;-72
2022/01/03 01:55:12;;;;;;;;;4.00;1.75;;;;;11.02;73.39;101352.84;5072240;28;45521;-72
2022/01/03 01:57:56;;;;;;;;;5.75;2.00;;;;;11.25;74.07;101386.66;5063221;27;45569;-72
2022/01/03 02:00:21;;;;;;;;;6.25;3.50;;;;;11.20;74.04;101377.97;5061687;27;46056;-72
2022/01/03 02:02:50;;;;;;;;;12.75;4.00;;;;;11.27;73.64;101398.97;5070008;28;45585;-72
2022/01/03 02:05:34;;;;;;;;;7.75;3.00;;;;;11.28;73.66;101403.34;5059134;27;45470;-72
2022/01/03 02:08:18;;;;;;;;;8.50;1.75;;;;;11.28;73.66;101392.75;5067966;27;45535;-72
2022/01/03 02:10:50;;;;;;;;;8.00;1.00;;;;;11.29;73.89;101391.81;5087361;27;46207;-72
2022/01/03 02:13:21;;;;;;;;;6.75;2.75;;;;;11.11;73.94;101368.47;5071572;28;45539;-72
2022/01/03 02:15:56;;;;;;;;;5.75;1.50;;;;;11.26;74.07;101396.34;5068627;27;45471;-72
2022/01/03 02:18:22;;;;;;;;;5.75;2.50;;;;;11.12;74.13;101365.81;5062242;27;45516;-72
2022/01/03 02:20:48;;;;;;;;;8.75;2.25;;;;;11.16;74.16;101371.03;5067360;27;45931;-72
2022/01/03 02:23:13;;;;;;;;;12.25;3.50;;;;;11.21;74.14;101382.38;5073463;27;45499;-73
2022/01/03 02:25:39;;;;;;;;;8.25;2.00;;;;;11.35;74.00;101404.94;5066485;28;45355;-72
2022/01/03 02:28:04;;;;;;;;;7.25;3.25;;;;;11.32;74.46;101397.06;5057797;27;46468;-72
2022/01/03 02:30:31;;;;;;;;;9.25;2.50;;;;;11.32;73.97;101382.94;5066926;27;46085;-72
2022/01/03 02:32:57;;;;;;;;;16.00;2.00;;;;;11.35;74.10;101390.78;5070965;27;45474;-72
2022/01/03 02:35:23;;;;;;;;;10.25;4.75;;;;;11.27;73.92;101377.78;5071603;27;45473;-72
2022/01/03 02:37:49;;;;;;;;;4.75;1.50;;;;;11.40;74.15;101395.97;5074011;28;45330;-72
2022/01/03 02:40:15;;;;;;;;;8.75;1.75;;;;;11.34;73.85;101387.28;5070970;27;45363;-72
2022/01/03 02:42:42;;;;;;;;;9.25;4.00;;;;;11.30;73.81;101367.09;5061240;27;45420;-72
2022/01/03 02:45:11;;;;;;;;;13.25;1.50;;;;;11.41;73.97;101387.13;5065464;27;45556;-72
2022/01/03 02:47:38;;;;;;;;;4.00;3.00;;;;;11.38;74.45;101377.47;5069520;27;47079;-72
2022/01/03 02:50:06;;;;;;;;;10.00;3.00;;;;;11.33;74.27;101364.34;5073905;27;45455;-72
2022/01/03 02:52:33;;;;;;;;;5.50;1.75;;;;;11.50;73.52;101385.09;5071339;27;45479;-72
2022/01/03 02:55:00;;;;;;;;;3.75;2.00;;;;;11.50;73.75;101371.84;5073705;27;45369;-72
2022/01/03 02:57:25;;;;;;;;;2.00;1.00;;;;;11.37;74.19;101359.84;5067927;27;45522;-72
2022/01/03 02:59:59;;;;;;;;;14.00;1.25;;;;;11.53;73.87;101370.88;5071855;27;45733;-72
2022/01/03 03:02:26;;;;;;;;;4.25;1.75;;;;;11.52;73.79;101383.25;5050355;28;45344;-72
2022/01/03 03:05:00;;;;;;;;;7.00;1.50;;;;;11.52;73.47;101375.31;5060197;27;45487;-72
2022/01/03 03:07:28;;;;;;;;;14.75;3.75;;;;;11.51;73.42;101373.56;5069568;27;45439;-72
2022/01/03 03:09:55;;;;;;;;;4.50;2.00;;;;;11.39;73.44;101365.97;5073566;28;46219;-72
2022/01/03 03:12:22;;;;;;;;;6.00;2.00;;;;;11.46;73.51;101380.78;5050587;28;45447;-72
2022/01/03 03:14:48;;;;;;;;;6.00;1.00;;;;;11.44;73.69;101379.06;5069319;28;45399;-72
2022/01/03 03:17:14;;;;;;;;;7.75;4.25;;;;;11.27;73.39;101359.22;5067527;27;45466;-72
2022/01/03 03:20:04;;;;;;;;;7.75;1.00;;;;;11.45;73.01;101372.88;5071543;27;45348;-72
2022/01/03 03:22:30;;;;;;;;;5.75;2.00;;;;;11.44;72.59;101365.81;5070518;27;45573;-72
2022/01/03 03:25:06;;;;;;;;;4.25;1.00;;;;;11.31;72.08;101355.56;5072033;27;45339;-72
2022/01/03 03:27:32;;;;;;;;;4.25;1.00;;;;;11.34;72.51;101352.84;5035855;28;45463;-72
2022/01/03 03:29:58;;;;;;;;;7.50;1.00;;;;;11.44;72.33;101379.06;5065584;27;46144;-72
2022/01/03 03:32:26;;;;;;;;;4.00;0.75;;;;;11.35;72.23;101373.16;5054861;28;45518;-72
2022/01/03 03:34:53;;;;;;;;;5.75;1.75;;;;;11.05;72.08;101316.53;5068225;27;48326;-72
2022/01/03 03:37:19;;;;;;;;;4.25;0.75;;;;;11.31;72.61;101363.50;5071113;27;45388;-72
2022/01/03 03:39:46;;;;;;;;;2.25;1.25;;;;;11.25;72.35;101353.09;5070566;27;45573;-71
2022/01/03 03:42:12;;;;;;;;;8.00;1.25;;;;;11.29;72.19;101361.81;5068966;28;45811;-72
2022/01/03 03:44:38;;;;;;;;;3.25;0.75;;;;;11.27;72.50;101353.06;5065505;27;45319;-72
2022/01/03 03:47:05;;;;;;;;;6.75;1.25;;;;;11.30;72.59;101355.63;5058557;27;45784;-72
2022/01/03 03:49:31;;;;;;;;;3.50;0.50;;;;;11.27;72.23;101345.97;5070590;27;46640;-72
2022/01/03 03:51:58;;;;;;;;;1.75;1.00;;;;;11.26;72.29;101346.00;5070560;28;45452;-72
2022/01/03 03:54:24;;;;;;;;;1.50;0.75;;;;;11.19;72.61;101340.00;5061438;27;45385;-72
2022/01/03 03:56:49;;;;;;;;;2.50;1.00;;;;;11.11;72.35;101326.09;5064595;27;47548;-72
2022/01/03 03:59:14;;;;;;;;;2.00;2.00;;;;;11.14;72.57;101331.31;5069593;27;46121;-72
2022/01/03 04:01:40;;;;;;;;;6.50;1.00;;;;;11.15;72.26;101343.66;5046174;28;45369;-72
2022/01/03 04:04:05;;;;;;;;;5.25;1.00;;;;;11.12;72.21;101328.72;5067938;27;45364;-72
2022/01/03 04:06:30;;;;;;;;;10.00;1.50;;;;;10.99;72.46;101308.75;5067425;28;45249;-72
2022/01/03 04:08:56;;;;;;;;;2.50;0.50;;;;;11.10;73.18;101325.22;5067559;27;46145;-72
2022/01/03 04:11:23;;;;;;;;;2.00;0.50;;;;;11.09;72.79;101317.34;5070036;27;45530;-72
2022/01/03 04:13:49;;;;;;;;;4.25;2.00;;;;;11.00;73.04;101301.66;5057406;27;45550;-72
2022/01/03 04:16:15;;;;;;;;;5.25;2.00;;;;;11.11;73.75;101321.66;5061564;27;45392;-72
2022/01/03 04:18:40;;;;;;;;;6.00;1.50;;;;;11.13;73.41;101319.00;5068684;28;45323;-72
2022/01/03 04:21:05;;;;;;;;;8.00;1.00;;;;;11.12;73.79;101307.53;5069765;27;45452;-72
2022/01/03 04:23:31;;;;;;;;;6.75;1.00;;;;;11.12;73.41;101307.53;5067926;27;45694;-72
2022/01/03 04:25:57;;;;;;;;;2.25;1.50;;;;;11.18;73.70;101301.19;5069741;27;45566;-72
2022/01/03 04:28:22;;;;;;;;;8.25;2.75;;;;;11.06;73.75;101283.84;5068961;27;46580;-72
2022/01/03 04:30:48;;;;;;;;;7.75;2.50;;;;;11.12;74.28;101283.69;5064251;27;45586;-72
2022/01/03 04:33:13;;;;;;;;;3.25;1.00;;;;;11.15;74.39;101280.09;5068450;28;45416;-72
2022/01/03 04:35:39;;;;;;;;;7.00;0.75;;;;;11.05;73.96;101257.41;5064991;27;45494;-72
2022/01/03 04:38:05;;;;;;;;;3.25;2.00;;;;;11.06;74.28;101249.44;5057254;28;45498;-72
2022/01/03 04:40:31;;;;;;;;;2.00;1.00;;;;;11.05;73.74;101246.81;5054551;27;45414;-72
2022/01/03 04:42:56;;;;;;;;;5.00;3.00;;;;;11.08;74.50;101263.47;5056780;28;45317;-72
2022/01/03 04:45:22;;;;;;;;;5.50;2.00;;;;;11.24;74.69;101274.53;5070245;27;45469;-72
2022/01/03 04:47:47;;;;;;;;;12.50;1.75;;;;;11.26;74.61;101275.31;5067866;27;45518;-72
2022/01/03 04:50:13;;;;;;;;;5.00;1.00;;;;;11.27;74.50;101279.75;5070279;27;45499;-72
2022/01/03 04:52:38;;;;;;;;;6.25;1.75;;;;;11.25;73.80;101281.56;5072084;28;45293;-72
2022/01/03 04:55:04;;;;;;;;;7.50;2.00;;;;;11.28;73.72;101285.91;5058309;27;45397;-72
2022/01/03 04:57:30;;;;;;;;;2.00;1.00;;;;;11.28;74.39;101275.28;5059899;28;46156;-72
2022/01/03 04:59:55;;;;;;;;;7.75;2.50;;;;;11.29;73.32;101277.88;5064433;27;45441;-72
2022/01/03 05:02:21;;;;;;;;;5.25;2.00;;;;;11.14;73.90;101241.25;5069334;27;45686;-72
2022/01/03 05:04:46;;;;;;;;;7.25;1.00;;;;;11.21;73.35;101253.41;5071148;27;45613;-72
2022/01/03 05:07:11;;;;;;;;;6.75;1.00;;;;;11.30;73.57;101271.69;5054440;27;45633;-72
2022/01/03 05:09:37;;;;;;;;;12.25;1.00;;;;;11.37;73.10;101275.91;5059725;27;45360;-72
2022/01/03 05:12:03;;;;;;;;;5.75;1.25;;;;;11.32;73.28;101269.88;5068227;27;45463;-72
2022/01/03 05:14:28;;;;;;;;;3.50;1.75;;;;;11.29;73.45;101261.13;5071375;27;45409;-72
2022/01/03 05:16:53;;;;;;;;;4.75;1.00;;;;;11.25;73.09;101252.41;5063302;27;46205;-72
2022/01/03 05:19:19;;;;;;;;;6.25;3.00;;;;;11.39;72.80;101277.66;5072987;27;45501;-72
2022/01/03 05:21:46;;;;;;;;;6.00;1.25;;;;;11.30;72.81;101253.16;5075191;27;45494;-72
2022/01/03 05:24:12;;;;;;;;;5.75;2.25;;;;;11.06;72.46;101212.34;5062791;28;45406;-72
2022/01/03 05:26:38;;;;;;;;;2.00;0.00;;;;;11.20;72.10;101234.91;5061369;27;47380;-72
2022/01/03 05:29:03;;;;;;;;;5.50;1.00;;;;;11.42;72.74;101262.53;5074095;28;45372;-72
2022/01/03 05:31:28;;;;;;;;;0.75;0.75;;;;;10.99;71.84;101194.00;5059953;27;45287;-72
2022/01/03 05:33:54;;;;;;;;;7.00;3.00;;;;;11.32;72.22;101256.63;5066185;27;45388;-72
2022/01/03 05:36:20;;;;;;;;;8.50;0.50;;;;;11.47;71.99;101273.88;5068704;27;46050;-72
2022/01/03 05:38:45;;;;;;;;;2.50;2.00;;;;;11.24;71.66;101236.56;5069555;28;45439;-72
2022/01/03 05:41:10;;;;;;;;;7.00;2.00;;;;;11.45;71.69;101280.97;5059418;27;45569;-72
2022/01/03 05:43:36;;;;;;;;;4.25;2.00;;;;;11.43;71.75;101268.69;5074923;27;45423;-71
2022/01/03 05:46:01;;;;;;;;;3.50;1.00;;;;;11.37;72.09;101253.84;5072426;27;46091;-72
2022/01/03 05:48:28;;;;;;;;;3.75;1.50;;;;;11.39;71.78;101267.91;5061672;27;45388;-72
2022/01/03 05:50:53;;;;;;;;;8.00;1.50;;;;;11.43;72.33;101282.81;5062775;28;45555;-71
2022/01/03 05:53:19;;;;;;;;;5.50;3.00;;;;;11.27;72.12;101250.59;5064230;27;45553;-72
2022/01/03 05:55:46;;;;;;;;;3.00;1.00;;;;;11.42;72.30;101270.47;5067858;27;46306;-72
2022/01/03 05:58:12;;;;;;;;;2.00;1.00;;;;;11.05;72.20;101205.28;5073064;28;45589;-72
2022/01/03 06:00:37;;;;;;;;;5.00;1.00;;;;;11.30;72.25;101239.91;5057571;28;45568;-72
2022/01/03 06:03:02;;;;;;;;;1.25;1.00;;;;;11.45;71.99;101264.22;5061882;28;45425;-72
2022/01/03 06:08:16;;;;;;;;;2.50;0.00;;;;;11.46;71.72;101269.47;5025392;28;45728;-72
2022/01/03 06:10:41;;;;;;;;;7.00;2.00;;;;;10.97;71.98;101188.78;5032548;28;45447;-72
2022/01/03 06:13:07;;;;;;;;;7.50;1.00;;;;;11.39;72.19;101252.00;5021709;28;45384;-72
2022/01/03 06:15:35;;;;;;;;;12.00;2.75;;;;;11.37;71.99;101249.38;5021363;28;46119;-72
2022/01/03 06:18:01;;;;;;;;;6.75;2.00;;;;;11.34;72.25;101248.63;5019496;28;45536;-72
2022/01/03 06:20:26;;;;;;;;;4.50;3.25;;;;;10.97;72.54;101188.78;5028515;28;45715;-72
2022/01/03 06:22:51;;;;;;;;;4.75;2.50;;;;;11.32;72.69;101250.44;5031987;28;45502;-72
2022/01/03 06:25:17;;;;;;;;;2.50;1.00;;;;;11.24;72.23;101234.78;5029174;28;46280;-72
2022/01/03 06:27:42;;;;;;;;;2.25;0.75;;;;;11.12;72.22;101211.31;5019270;28;45468;-72
2022/01/03 06:30:08;;;;;;;;;3.00;1.50;;;;;11.13;72.77;101208.59;5019384;28;46071;-72
2022/01/03 06:32:34;;;;;;;;;5.25;2.00;;;;;11.17;72.30;101219.97;5026281;28;45621;-72
2022/01/03 06:35:00;;;;;;;;;5.75;3.00;;;;;11.28;72.80;101247.00;5025884;28;49620;-72
2022/01/03 06:37:25;;;;;;;;;6.00;1.25;;;;;11.28;73.03;101249.66;4998458;28;45870;-72
2022/01/03 06:39:50;;;;;;;;;5.75;2.75;;;;;11.25;72.80;101239.16;5026026;28;45370;-73
2022/01/03 06:42:16;;;;;;;;;7.50;1.25;;;;;11.24;73.02;101223.31;5017497;28;46483;-72
2022/01/03 06:44:43;;;;;;;;;4.25;2.75;;;;;11.32;72.54;101237.19;5023035;28;46145;-72
2022/01/03 06:47:09;;;;;;;;;4.00;3.00;;;;;11.29;73.06;101237.28;5067006;27;45809;-72
2022/01/03 06:49:34;;;;;;;;;5.00;1.00;;;;;11.27;73.18;101240.00;5057101;27;45503;-72
2022/01/03 06:52:00;;;;;;;;;3.50;1.00;;;;;11.20;72.79;101216.34;5059569;27;45407;-72
2022/01/03 06:54:25;;;;;;;;;6.00;1.50;;;;;11.25;72.71;101240.94;5066164;28;46386;-72
2022/01/03 06:56:50;;;;;;;;;4.50;1.25;;;;;11.21;73.41;101241.97;5068646;27;45313;-72
2022/01/03 06:59:16;;;;;;;;;3.00;1.00;;;;;11.21;73.22;101231.38;5068910;27;45385;-72
2022/01/03 07:01:41;;;;;;;;;6.00;2.50;;;;;11.25;73.55;101233.84;5073066;27;45328;-72
2022/01/03 07:04:07;;;;;;;;;5.50;2.25;;;;;11.23;73.00;101230.38;5079079;27;46051;-72
2022/01/03 07:06:32;;;;;;;;;5.50;2.00;;;;;11.04;73.06;101198.28;5051695;28;45890;-72
2022/01/03 07:08:58;;;;;;;;;6.75;3.75;;;;;11.25;73.81;101228.56;5064229;27;45443;-72
2022/01/03 07:11:24;;;;;;;;;5.25;2.00;;;;;11.18;73.92;101211.13;5068371;27;45384;-72
2022/01/03 07:13:50;;;;;;;;;3.00;1.50;;;;;11.16;73.27;101202.34;5072139;28;45305;-71
2022/01/03 07:19:00;;;;;;;;;2.25;0.00;;;;;11.23;73.64;101224.22;5061556;27;45360;-72
2022/01/03 07:21:28;;;;;;;;;3.75;2.00;;;;;11.18;73.42;101224.38;5057454;27;45376;-72
2022/01/03 07:23:54;;;;;;;;;5.75;2.00;;;;;11.23;73.42;101213.63;5062905;27;45505;-72
2022/01/03 07:26:20;;;;;;;;;4.00;1.50;;;;;11.19;74.07;101207.53;5072243;28;47767;-72
2022/01/03 07:28:45;;;;;;;;;2.00;1.00;;;;;11.18;74.27;101205.81;5046880;28;45341;-72
2022/01/03 07:31:11;;;;;;;;;10.75;2.00;;;;;11.03;74.39;101185.06;5063122;27;45356;-72
2022/01/03 07:33:36;;;;;;;;;1.00;0.00;;;;;11.03;74.54;101190.34;5053921;28;46126;-72
2022/01/03 07:36:02;;;;;;;;;2.25;0.50;;;;;11.14;74.17;101209.47;5072192;27;45434;-72
2022/01/03 07:38:27;;;;;;;;;2.00;0.75;;;;;11.11;74.20;101209.53;5049366;27;45767;-72
2022/01/03 07:40:54;;;;;;;;;6.00;1.00;;;;;11.14;74.31;101197.06;5072937;28;45253;-72
2022/01/03 07:43:19;;;;;;;;;5.50;1.25;;;;;10.99;74.50;101183.41;5071056;28;46117;-72
2022/01/03 07:45:44;;;;;;;;;3.00;1.00;;;;;11.13;74.56;101211.25;5062445;27;45358;-72
2022/01/03 07:48:10;;;;;;;;;6.75;1.50;;;;;11.06;74.71;101195.56;5069121;28;45286;-71
2022/01/03 07:50:35;;;;;;;;;7.75;3.00;;;;;11.07;75.08;101197.31;5066862;27;45323;-71
2022/01/03 07:53:01;;;;;;;;;5.25;1.00;;;;;11.07;74.18;101199.97;5064143;27;45473;-71
2022/01/03 07:55:27;;;;;;;;;2.00;1.00;;;;;10.96;74.90;101194.09;5069100;27;45697;-71
2022/01/03 07:57:54;;;;;;;;;1.75;1.75;;;;;11.06;74.85;101212.34;5068960;27;45948;-70
2022/01/03 08:00:20;;;;;;;;;2.25;1.00;;;;;11.05;74.93;101215.88;5062766;27;45588;-71
2022/01/03 08:02:45;;;;;;;;;5.75;3.00;;;;;10.83;74.97;101175.91;5075721;27;46236;-72
2022/01/03 08:05:13;;;;;;;;;8.00;3.75;;;;;11.06;74.75;101211.44;5060863;27;46213;-72
2022/01/03 08:07:40;;;;;;;;;2.50;0.00;;;;;10.88;74.54;101181.97;5072434;27;45502;-72
2022/01/03 08:10:07;;;;;;;;;11.00;2.00;;;;;11.04;74.72;101210.66;5069130;27;45432;-72
2022/01/03 08:12:33;;;;;;;;;4.00;1.75;;;;;10.96;75.19;101189.66;5066980;27;45426;-73
2022/01/03 08:14:59;;;;;;;;;7.75;2.25;;;;;11.17;75.07;101214.66;5067798;28;45360;-72
2022/01/03 08:17:25;;;;;;;;;3.00;3.00;;;;;11.04;74.88;101192.09;5049010;28;45459;-73
2022/01/03 08:19:51;;;;;;;;;7.75;2.00;;;;;10.95;75.06;101174.69;5062231;27;45451;-73
2022/01/03 08:22:17;;;;;;;;;7.00;2.50;;;;;11.09;74.78;101191.06;5067352;27;45543;-73
2022/01/03 08:24:43;;;;;;;;;16.25;6.25;;;;;11.14;74.41;101189.13;5069194;27;45622;-72
2022/01/03 08:27:08;;;;;;;;;2.50;1.00;;;;;11.29;74.38;101219.59;5065345;28;45458;-73
2022/01/03 08:29:34;;;;;;;;;5.25;3.25;;;;;11.11;74.70;101188.34;5055129;28;45635;-72
2022/01/03 08:31:59;;;;;;;;;4.50;2.50;;;;;11.26;74.63;101217.03;5062366;27;46789;-72
2022/01/03 08:34:25;;;;;;;;;10.00;2.25;;;;;11.24;75.03;101215.38;5070906;28;45352;-73
2022/01/03 08:36:51;;;;;;;;;6.50;3.00;;;;;11.25;74.75;101217.97;5058024;27;45343;-72
2022/01/03 08:39:16;;;;;;;;;8.75;2.75;;;;;11.27;74.50;101224.09;5065676;27;45858;-72
2022/01/03 08:41:42;;;;;;;;;9.25;2.75;;;;;11.17;74.67;101206.72;5061338;28;46494;-72
2022/01/03 08:44:08;;;;;;;;;7.50;4.00;;;;;11.21;74.65;101213.69;5075626;27;45931;-73
2022/01/03 08:46:34;;;;;;;;;12.00;3.00;;;;;11.03;74.28;101180.66;5068680;27;45648;-73
2022/01/03 08:49:00;;;;;;;;;7.25;2.75;;;;;11.21;74.90;101210.16;5048780;28;45523;-73
2022/01/03 08:51:28;;;;;;;;;4.75;1.75;;;;;11.12;74.55;101192.75;5062586;27;46249;-73
2022/01/03 08:53:59;;;;;;;;;7.75;3.00;;;;;11.22;74.34;101210.09;5070226;27;45416;-74
2022/01/03 08:56:25;;;;;;;;;5.25;4.00;;;;;11.29;74.21;101216.09;5071395;28;45496;-74
2022/01/03 08:58:52;;;;;;;;;3.00;2.00;;;;;11.28;74.84;101217.88;5071564;27;45364;-74
2022/01/03 09:01:17;;;;;;;;;4.75;1.00;;;;;11.28;74.58;101224.97;5060700;27;46143;-73
2022/01/03 09:03:43;;;;;;;;;6.75;3.50;;;;;11.21;74.48;101204.88;5063943;27;45473;-73
2022/01/03 09:06:08;;;;;;;;;5.00;1.50;;;;;11.27;74.83;101225.88;5067469;27;47028;-73
2022/01/03 09:08:34;;;;;;;;;5.00;3.00;;;;;11.30;74.45;101229.31;5070513;27;45486;-74
2022/01/03 09:10:59;;;;;;;;;8.50;0.00;;;;;11.07;74.41;101184.94;5064697;27;46330;-73
2022/01/03 09:13:24;;;;;;;;;6.25;2.50;;;;;11.25;74.33;101220.59;5070150;27;45352;-73
2022/01/03 09:15:51;;;;;;;;;9.50;3.00;;;;;11.31;74.68;101223.06;5072565;28;45514;-74
2022/01/03 09:18:21;;;;;;;;;8.50;2.25;;;;;11.30;74.35;101216.06;5049844;28;45539;-73
2022/01/03 09:20:48;;;;;;;;;6.25;2.25;;;;;11.20;74.35;101190.72;5061395;27;46418;-73
2022/01/03 09:23:21;;;;;;;;;9.50;5.25;;;;;11.25;74.60;101188.81;5058847;28;45402;-73
2022/01/03 09:28:49;;;;;;;;;4.25;2.75;;;;;11.11;74.60;101165.38;5073684;27;45319;-72
2022/01/03 09:31:16;;;;;;;;;7.75;3.75;;;;;11.34;74.59;101200.94;5069211;27;46151;-73
2022/01/03 09:33:42;;;;;;;;;6.00;4.00;;;;;11.35;74.99;101195.59;5062927;28;45362;-72
2022/01/03 09:36:08;;;;;;;;;4.50;2.00;;;;;11.34;74.30;101188.53;5063050;27;45521;-72
2022/01/03 09:38:34;;;;;;;;;5.00;3.75;;;;;11.41;74.25;101196.31;5060302;27;45285;-73
2022/01/03 09:41:03;;;;;;;;;6.00;3.00;;;;;11.39;74.86;101183.13;5066231;27;45919;-73
2022/01/03 09:43:56;;;;;;;;;7.00;2.25;;;;;11.28;74.13;101172.81;5066412;27;45344;-73
2022/01/03 09:46:27;;;;;;;;;5.50;4.25;;;;;11.33;74.15;101181.50;5047948;28;45486;-72
2022/01/03 09:48:54;;;;;;;;;7.25;2.25;;;;;11.49;74.73;101205.75;5073189;27;45443;-73
2022/01/03 09:51:28;;;;;;;;;13.25;4.00;;;;;11.42;75.17;101198.06;5065846;27;45929;-72
2022/01/03 09:53:56;;;;;;;;;6.25;4.00;;;;;11.51;75.02;101211.88;5064145;27;45566;-73
2022/01/03 09:56:23;;;;;;;;;7.75;4.00;;;;;11.49;74.58;101208.41;5066994;28;45509;-72
2022/01/03 09:58:49;;;;;;;;;7.50;3.50;;;;;11.44;75.23;101206.81;5048694;28;45428;-72
2022/01/03 10:01:14;;;;;;;;;7.75;3.25;;;;;11.42;74.92;101198.06;5067372;27;46056;-73
2022/01/03 10:03:47;;;;;;;;;12.25;4.75;;;;;11.35;75.57;101198.25;5062458;28;45494;-73
2022/01/03 10:06:15;;;;;;;;;7.25;2.25;;;;;11.35;75.08;101187.66;5069558;27;45538;-73
2022/01/03 10:08:41;;;;;;;;;5.50;3.00;;;;;11.31;75.78;101203.66;5068424;27;45479;-71
2022/01/03 10:11:06;;;;;;;;;8.50;3.00;;;;;11.30;76.11;101210.75;5059580;27;47716;-73
2022/01/03 10:13:32;;;;;;;;;3.75;0.75;;;;;11.28;76.20;101198.47;5065569;27;45770;-72
2022/01/03 10:15:57;;;;;;;;;5.75;2.75;;;;;11.19;76.08;101178.41;5067985;27;45511;-71
2022/01/03 10:18:23;;;;;;;;;3.25;2.75;;;;;11.31;76.03;101183.34;5062555;27;45554;-72
2022/01/03 10:20:48;;;;;;;;;3.25;1.50;;;;;11.32;76.06;101192.16;5061964;27;46061;-73
2022/01/03 10:23:16;;;;;;;;;8.50;1.50;;;;;11.09;75.36;101145.16;5057429;27;46653;-74
2022/01/03 10:25:42;;;;;;;;;6.50;2.00;;;;;11.35;75.72;101177.03;5064205;27;45591;-73
2022/01/03 10:28:09;;;;;;;;;5.50;1.25;;;;;11.08;75.56;101131.03;5066984;27;45566;-73
2022/01/03 10:30:45;;;;;;;;;11.00;2.50;;;;;11.12;75.53;101142.44;5058871;27;46191;-74
2022/01/03 10:33:14;;;;;;;;;4.25;2.50;;;;;11.27;76.16;101157.84;5062776;27;46842;-73
2022/01/03 10:35:43;;;;;;;;;5.75;3.00;;;;;11.09;76.05;101121.34;5060904;27;45564;-72
2022/01/03 10:38:09;;;;;;;;;3.75;2.00;;;;;11.31;76.47;101148.03;5065693;27;45768;-73
2022/01/03 10:40:36;;;;;;;;;7.00;3.00;;;;;11.05;76.31;101083.44;5055215;27;45541;-72
2022/01/03 10:43:14;;;;;;;;;8.00;5.75;;;;;11.45;76.44;101147.59;5067105;27;46463;-72
2022/01/03 10:45:39;;;;;;;;;17.50;4.50;;;;;11.47;76.17;101151.94;5071565;27;45420;-74
2022/01/03 10:48:34;;;;;;;;;9.00;6.50;;;;;11.50;77.06;101137.69;5068008;27;45589;-74
2022/01/03 10:51:01;;;;;;;;;10.25;7.50;;;;;11.55;76.14;101136.63;5069818;27;45411;-74
2022/01/03 10:53:42;;;;;;;;;10.25;6.75;;;;;11.58;76.44;101140.97;5067108;27;45571;-74
2022/01/03 10:56:28;;;;;;;;;11.75;6.25;;;;;11.58;77.01;101130.38;5044929;27;45473;-74
2022/01/03 10:58:55;;;;;;;;;13.50;6.50;;;;;11.63;77.34;101133.75;5060893;27;45313;-74
2022/01/03 11:01:27;;;;;;;;;11.50;6.50;;;;;11.45;77.45;101084.88;5058622;27;45529;-73
2022/01/03 11:03:54;;;;;;;;;68.25;52.50;;;;;11.60;78.93;101094.97;5074018;27;45689;-73
2022/01/03 11:06:48;;;;;;;;;96.00;72.33;;;;;11.79;76.58;101107.59;5063717;27;45240;-74
2022/01/03 11:11:58;;;;;;;;;7.75;4.00;;;;;11.59;76.30;101106.50;5067570;27;46165;-73
2022/01/03 11:14:33;;;;;;;;;12.00;4.75;;;;;11.51;77.11;101112.94;5068732;27;45415;-73
2022/01/03 11:17:20;;;;;;;;;6.00;4.75;;;;;11.27;77.36;101073.06;5042475;28;46031;-73
2022/01/03 11:19:46;;;;;;;;;7.00;5.75;;;;;11.52;77.66;101098.78;5063408;28;45383;-73
2022/01/03 11:22:38;;;;;;;;;13.75;7.75;;;;;11.48;77.99;101102.44;5069345;27;46122;-73
2022/01/03 11:25:05;;;;;;;;;7.25;5.00;;;;;11.49;77.61;101072.38;5061519;28;45612;-73
2022/01/03 11:27:31;;;;;;;;;5.50;3.00;;;;;11.70;78.16;101099.94;5066895;27;46861;-72
2022/01/03 11:29:58;;;;;;;;;5.75;4.00;;;;;11.63;77.32;101090.47;5055832;27;45608;-72
2022/01/03 11:32:24;;;;;;;;;6.00;3.00;;;;;11.58;77.71;101109.19;5062773;27;45618;-72
2022/01/03 11:34:51;;;;;;;;;7.00;4.25;;;;;11.63;77.40;101111.69;5058638;27;47257;-72
2022/01/03 11:37:16;;;;;;;;;3.25;3.25;;;;;11.46;77.86;101086.59;5062028;27;45493;-72